sensor_id;sensor_type;location;lat;lon;timestamp;pressure;altitude;pressure_sealevel;temperature;humidity
80568;BME280;69922;45.656;25.586;2023-08-01T00:00:50;94915.67;;;16.84;82.55
80568;BME280;69922;45.656;25.586;2023-08-01T00:02:05;94913.33;;;16.80;82.55
80568;BME280;69922;45.656;25.586;2023-08-01T00:03:12;94910.36;;;16.77;82.53
80568;BME280;69922;45.656;25.586;2023-08-01T00:04:20;94910.00;;;16.75;82.70
80568;BME280;69922;45.656;25.586;2023-08-01T00:05:26;94909.50;;;16.73;82.84
80568;BME280;69922;45.656;25.586;2023-08-01T00:06:32;94907.27;;;16.71;82.90
80568;BME280;69922;45.656;25.586;2023-08-01T00:07:39;94907.79;;;16.70;82.84
80568;BME280;69922;45.656;25.586;2023-08-01T00:08:47;94908.54;;;16.67;82.72
80568;BME280;69922;45.656;25.586;2023-08-01T00:09:53;94905.58;;;16.64;82.76
80568;BME280;69922;45.656;25.586;2023-08-01T00:10:59;94900.73;;;16.63;82.86
80568;BME280;69922;45.656;25.586;2023-08-01T00:12:07;94899.94;;;16.61;83.03
80568;BME280;69922;45.656;25.586;2023-08-01T00:13:13;94900.05;;;16.59;82.87
80568;BME280;69922;45.656;25.586;2023-08-01T00:14:20;94902.08;;;16.58;82.78
80568;BME280;69922;45.656;25.586;2023-08-01T00:15:26;94905.30;;;16.58;82.70
80568;BME280;69922;45.656;25.586;2023-08-01T00:16:32;94898.95;;;16.55;82.76
80568;BME280;69922;45.656;25.586;2023-08-01T00:17:39;94898.83;;;16.52;82.85
80568;BME280;69922;45.656;25.586;2023-08-01T00:18:47;94896.60;;;16.51;82.93
80568;BME280;69922;45.656;25.586;2023-08-01T00:19:53;94897.65;;;16.49;83.15
80568;BME280;69922;45.656;25.586;2023-08-01T00:21:02;94896.14;;;16.48;83.15
80568;BME280;69922;45.656;25.586;2023-08-01T00:22:12;94895.25;;;16.46;83.25
80568;BME280;69922;45.656;25.586;2023-08-01T00:23:18;94895.41;;;16.43;83.21
80568;BME280;69922;45.656;25.586;2023-08-01T00:24:25;94892.71;;;16.42;83.13
80568;BME280;69922;45.656;25.586;2023-08-01T00:25:31;94887.88;;;16.40;83.18
80568;BME280;69922;45.656;25.586;2023-08-01T00:26:38;94887.61;;;16.38;83.18
80568;BME280;69922;45.656;25.586;2023-08-01T00:27:45;94887.91;;;16.38;83.22
80568;BME280;69922;45.656;25.586;2023-08-01T00:28:51;94885.38;;;16.38;83.19
80568;BME280;69922;45.656;25.586;2023-08-01T00:29:58;94885.48;;;16.38;83.03
80568;BME280;69922;45.656;25.586;2023-08-01T00:31:06;94880.71;;;16.36;82.91
80568;BME280;69922;45.656;25.586;2023-08-01T00:32:17;94880.86;;;16.35;82.87
80568;BME280;69922;45.656;25.586;2023-08-01T00:33:24;94879.58;;;16.34;82.91
80568;BME280;69922;45.656;25.586;2023-08-01T00:34:30;94874.73;;;16.32;82.85
80568;BME280;69922;45.656;25.586;2023-08-01T00:35:37;94877.86;;;16.31;82.98
80568;BME280;69922;45.656;25.586;2023-08-01T00:36:44;94876.10;;;16.29;82.92
80568;BME280;69922;45.656;25.586;2023-08-01T00:37:50;94878.28;;;16.28;83.14
80568;BME280;69922;45.656;25.586;2023-08-01T00:38:57;94880.37;;;16.27;83.13
80568;BME280;69922;45.656;25.586;2023-08-01T00:40:04;94878.68;;;16.24;83.07
80568;BME280;69922;45.656;25.586;2023-08-01T00:41:11;94883.45;;;16.22;83.09
80568;BME280;69922;45.656;25.586;2023-08-01T00:42:17;94885.44;;;16.19;83.57
80568;BME280;69922;45.656;25.586;2023-08-01T00:43:23;94884.67;;;16.17;83.79
80568;BME280;69922;45.656;25.586;2023-08-01T00:44:30;94882.90;;;16.14;83.76
80568;BME280;69922;45.656;25.586;2023-08-01T00:45:36;94882.95;;;16.12;83.88
80568;BME280;69922;45.656;25.586;2023-08-01T00:46:42;94882.38;;;16.11;83.96
80568;BME280;69922;45.656;25.586;2023-08-01T00:47:49;94884.41;;;16.10;83.85
80568;BME280;69922;45.656;25.586;2023-08-01T00:48:59;94884.29;;;16.09;84.03
80568;BME280;69922;45.656;25.586;2023-08-01T00:50:08;94889.23;;;16.08;83.89
80568;BME280;69922;45.656;25.586;2023-08-01T00:51:14;94889.27;;;16.06;83.88
80568;BME280;69922;45.656;25.586;2023-08-01T00:52:20;94891.77;;;16.05;83.99
80568;BME280;69922;45.656;25.586;2023-08-01T00:53:28;94892.21;;;16.03;84.12
80568;BME280;69922;45.656;25.586;2023-08-01T00:54:35;94890.85;;;16.02;84.14
80568;BME280;69922;45.656;25.586;2023-08-01T00:55:46;94894.50;;;16.00;84.36
80568;BME280;69922;45.656;25.586;2023-08-01T00:56:52;94892.51;;;15.98;84.39
80568;BME280;69922;45.656;25.586;2023-08-01T00:57:58;94893.76;;;15.98;84.32
80568;BME280;69922;45.656;25.586;2023-08-01T00:59:07;94893.30;;;15.98;84.35
80568;BME280;69922;45.656;25.586;2023-08-01T01:00:15;94892.02;;;15.98;84.34
80568;BME280;69922;45.656;25.586;2023-08-01T01:01:25;94893.36;;;15.97;84.30
80568;BME280;69922;45.656;25.586;2023-08-01T01:02:32;94896.26;;;15.97;84.35
80568;BME280;69922;45.656;25.586;2023-08-01T01:03:39;94895.48;;;15.97;84.59
80568;BME280;69922;45.656;25.586;2023-08-01T01:04:45;94899.89;;;15.98;84.38
80568;BME280;69922;45.656;25.586;2023-08-01T01:05:56;94903.50;;;15.97;84.35
80568;BME280;69922;45.656;25.586;2023-08-01T01:07:06;94904.79;;;15.98;84.38
80568;BME280;69922;45.656;25.586;2023-08-01T01:08:13;94904.63;;;15.98;84.43
80568;BME280;69922;45.656;25.586;2023-08-01T01:09:20;94901.17;;;15.99;84.47
80568;BME280;69922;45.656;25.586;2023-08-01T01:10:27;94898.59;;;15.99;84.52
80568;BME280;69922;45.656;25.586;2023-08-01T01:11:33;94897.02;;;16.00;84.59
80568;BME280;69922;45.656;25.586;2023-08-01T01:12:40;94897.69;;;16.01;84.87
80568;BME280;69922;45.656;25.586;2023-08-01T01:13:46;94895.02;;;16.02;84.81
80568;BME280;69922;45.656;25.586;2023-08-01T01:14:52;94896.30;;;16.03;84.69
80568;BME280;69922;45.656;25.586;2023-08-01T01:15:59;94895.84;;;16.03;84.73
80568;BME280;69922;45.656;25.586;2023-08-01T01:17:06;94893.71;;;16.04;84.76
80568;BME280;69922;45.656;25.586;2023-08-01T01:18:13;94890.73;;;16.03;84.86
80568;BME280;69922;45.656;25.586;2023-08-01T01:19:19;94892.44;;;16.03;84.92
80568;BME280;69922;45.656;25.586;2023-08-01T01:20:26;94890.90;;;16.04;85.05
80568;BME280;69922;45.656;25.586;2023-08-01T01:23:25;94895.61;;;16.05;85.04
80568;BME280;69922;45.656;25.586;2023-08-01T01:24:35;94895.88;;;16.05;85.20
80568;BME280;69922;45.656;25.586;2023-08-01T01:25:41;94894.80;;;16.07;85.16
80568;BME280;69922;45.656;25.586;2023-08-01T01:26:49;94890.33;;;16.08;85.20
80568;BME280;69922;45.656;25.586;2023-08-01T01:27:58;94892.23;;;16.09;85.26
80568;BME280;69922;45.656;25.586;2023-08-01T01:29:06;94890.70;;;16.11;85.22
80568;BME280;69922;45.656;25.586;2023-08-01T01:30:15;94888.75;;;16.11;85.38
80568;BME280;69922;45.656;25.586;2023-08-01T01:31:22;94890.95;;;16.11;85.51
80568;BME280;69922;45.656;25.586;2023-08-01T01:32:29;94889.15;;;16.11;85.28
80568;BME280;69922;45.656;25.586;2023-08-01T01:33:37;94887.63;;;16.10;85.23
80568;BME280;69922;45.656;25.586;2023-08-01T01:34:43;94886.13;;;16.10;85.04
80568;BME280;69922;45.656;25.586;2023-08-01T01:35:50;94888.40;;;16.09;85.12
80568;BME280;69922;45.656;25.586;2023-08-01T01:36:56;94885.96;;;16.10;85.16
80568;BME280;69922;45.656;25.586;2023-08-01T01:38:02;94885.65;;;16.10;85.28
80568;BME280;69922;45.656;25.586;2023-08-01T01:39:12;94890.98;;;16.09;85.26
80568;BME280;69922;45.656;25.586;2023-08-01T01:40:18;94891.30;;;16.09;85.21
80568;BME280;69922;45.656;25.586;2023-08-01T01:41:24;94888.32;;;16.09;85.35
80568;BME280;69922;45.656;25.586;2023-08-01T01:42:31;94886.42;;;16.09;85.31
80568;BME280;69922;45.656;25.586;2023-08-01T01:43:37;94885.89;;;16.10;85.34
80568;BME280;69922;45.656;25.586;2023-08-01T01:44:44;94889.31;;;16.11;85.57
80568;BME280;69922;45.656;25.586;2023-08-01T01:45:50;94885.45;;;16.11;85.66
80568;BME280;69922;45.656;25.586;2023-08-01T01:46:56;94882.16;;;16.12;85.70
80568;BME280;69922;45.656;25.586;2023-08-01T01:48:02;94880.05;;;16.12;85.52
80568;BME280;69922;45.656;25.586;2023-08-01T01:49:08;94882.40;;;16.12;85.46
80568;BME280;69922;45.656;25.586;2023-08-01T01:50:15;94884.13;;;16.12;85.40
80568;BME280;69922;45.656;25.586;2023-08-01T01:51:22;94883.27;;;16.12;85.36
80568;BME280;69922;45.656;25.586;2023-08-01T01:52:29;94884.61;;;16.12;85.40
80568;BME280;69922;45.656;25.586;2023-08-01T01:53:35;94883.66;;;16.12;85.36
80568;BME280;69922;45.656;25.586;2023-08-01T01:54:42;94884.30;;;16.13;85.42
80568;BME280;69922;45.656;25.586;2023-08-01T01:55:48;94882.98;;;16.14;85.45
80568;BME280;69922;45.656;25.586;2023-08-01T01:56:54;94882.98;;;16.14;85.45
80568;BME280;69922;45.656;25.586;2023-08-01T01:58:00;94883.95;;;16.16;85.26
80568;BME280;69922;45.656;25.586;2023-08-01T01:59:07;94884.61;;;16.17;85.20
80568;BME280;69922;45.656;25.586;2023-08-01T02:00:16;94884.61;;;16.17;85.15
80568;BME280;69922;45.656;25.586;2023-08-01T02:01:23;94886.42;;;16.17;85.29
80568;BME280;69922;45.656;25.586;2023-08-01T02:02:29;94884.91;;;16.16;85.19
80568;BME280;69922;45.656;25.586;2023-08-01T02:03:36;94888.36;;;16.16;85.15
80568;BME280;69922;45.656;25.586;2023-08-01T02:04:42;94885.12;;;16.15;85.35
80568;BME280;69922;45.656;25.586;2023-08-01T02:05:49;94885.98;;;16.14;85.19
80568;BME280;69922;45.656;25.586;2023-08-01T02:06:54;94889.20;;;16.14;85.12
80568;BME280;69922;45.656;25.586;2023-08-01T02:08:00;94890.84;;;16.14;85.13
80568;BME280;69922;45.656;25.586;2023-08-01T02:09:07;94889.25;;;16.13;85.09
80568;BME280;69922;45.656;25.586;2023-08-01T02:10:14;94891.12;;;16.12;85.06
80568;BME280;69922;45.656;25.586;2023-08-01T02:11:20;94891.16;;;16.10;85.19
80568;BME280;69922;45.656;25.586;2023-08-01T02:12:26;94892.78;;;16.09;85.06
80568;BME280;69922;45.656;25.586;2023-08-01T02:13:33;94892.14;;;16.08;85.07
80568;BME280;69922;45.656;25.586;2023-08-01T02:14:40;94890.95;;;16.07;85.12
80568;BME280;69922;45.656;25.586;2023-08-01T02:15:47;94887.56;;;16.07;85.18
80568;BME280;69922;45.656;25.586;2023-08-01T02:16:52;94892.52;;;16.07;85.35
80568;BME280;69922;45.656;25.586;2023-08-01T02:17:59;94891.20;;;16.08;85.42
80568;BME280;69922;45.656;25.586;2023-08-01T02:19:05;94887.73;;;16.08;85.18
80568;BME280;69922;45.656;25.586;2023-08-01T02:20:12;94888.03;;;16.07;85.13
80568;BME280;69922;45.656;25.586;2023-08-01T02:21:18;94887.49;;;16.08;85.14
80568;BME280;69922;45.656;25.586;2023-08-01T02:22:26;94888.35;;;16.07;85.16
80568;BME280;69922;45.656;25.586;2023-08-01T02:23:33;94889.27;;;16.06;85.03
80568;BME280;69922;45.656;25.586;2023-08-01T02:24:42;94891.06;;;16.05;85.10
80568;BME280;69922;45.656;25.586;2023-08-01T02:25:48;94888.11;;;16.02;85.18
80568;BME280;69922;45.656;25.586;2023-08-01T02:26:54;94888.39;;;16.00;85.15
80568;BME280;69922;45.656;25.586;2023-08-01T02:28:00;94888.04;;;16.00;85.17
80568;BME280;69922;45.656;25.586;2023-08-01T02:29:07;94888.38;;;16.01;85.33
80568;BME280;69922;45.656;25.586;2023-08-01T02:30:13;94889.59;;;16.01;85.28
80568;BME280;69922;45.656;25.586;2023-08-01T02:31:22;94890.15;;;16.02;85.26
80568;BME280;69922;45.656;25.586;2023-08-01T02:32:29;94888.19;;;16.02;85.12
80568;BME280;69922;45.656;25.586;2023-08-01T02:33:36;94887.08;;;16.01;85.11
80568;BME280;69922;45.656;25.586;2023-08-01T02:34:44;94883.50;;;16.00;85.18
80568;BME280;69922;45.656;25.586;2023-08-01T02:35:51;94883.94;;;15.99;85.24
80568;BME280;69922;45.656;25.586;2023-08-01T02:37:06;94879.04;;;15.98;85.19
80568;BME280;69922;45.656;25.586;2023-08-01T02:38:13;94880.39;;;15.98;85.23
80568;BME280;69922;45.656;25.586;2023-08-01T02:39:19;94880.54;;;15.98;85.30
80568;BME280;69922;45.656;25.586;2023-08-01T02:40:25;94875.91;;;15.99;85.37
80568;BME280;69922;45.656;25.586;2023-08-01T02:41:33;94872.98;;;16.01;85.33
80568;BME280;69922;45.656;25.586;2023-08-01T02:42:40;94873.33;;;16.03;85.23
80568;BME280;69922;45.656;25.586;2023-08-01T02:43:46;94874.05;;;16.04;85.24
80568;BME280;69922;45.656;25.586;2023-08-01T02:44:52;94871.06;;;16.04;85.21
80568;BME280;69922;45.656;25.586;2023-08-01T02:45:59;94871.15;;;16.04;85.12
80568;BME280;69922;45.656;25.586;2023-08-01T02:47:07;94872.65;;;16.05;85.31
80568;BME280;69922;45.656;25.586;2023-08-01T02:48:13;94872.14;;;16.06;85.23
80568;BME280;69922;45.656;25.586;2023-08-01T02:49:20;94870.75;;;16.08;85.17
80568;BME280;69922;45.656;25.586;2023-08-01T02:50:26;94871.39;;;16.09;85.21
80568;BME280;69922;45.656;25.586;2023-08-01T02:51:32;94868.20;;;16.10;85.19
80568;BME280;69922;45.656;25.586;2023-08-01T02:52:39;94869.15;;;16.11;85.23
80568;BME280;69922;45.656;25.586;2023-08-01T02:53:46;94862.48;;;16.12;85.31
80568;BME280;69922;45.656;25.586;2023-08-01T02:54:52;94866.35;;;16.13;85.25
80568;BME280;69922;45.656;25.586;2023-08-01T02:55:59;94864.13;;;16.16;85.44
80568;BME280;69922;45.656;25.586;2023-08-01T02:57:06;94860.55;;;16.18;85.41
80568;BME280;69922;45.656;25.586;2023-08-01T02:58:12;94861.63;;;16.21;85.35
80568;BME280;69922;45.656;25.586;2023-08-01T02:59:18;94857.97;;;16.24;85.25
80568;BME280;69922;45.656;25.586;2023-08-01T03:00:25;94857.77;;;16.25;85.19
80568;BME280;69922;45.656;25.586;2023-08-01T03:01:32;94854.83;;;16.28;85.23
80568;BME280;69922;45.656;25.586;2023-08-01T03:02:39;94854.87;;;16.31;85.14
80568;BME280;69922;45.656;25.586;2023-08-01T03:03:46;94858.62;;;16.34;85.07
80568;BME280;69922;45.656;25.586;2023-08-01T03:04:52;94853.84;;;16.35;85.01
80568;BME280;69922;45.656;25.586;2023-08-01T03:05:58;94854.73;;;16.36;85.00
80568;BME280;69922;45.656;25.586;2023-08-01T03:07:09;94855.52;;;16.37;84.96
80568;BME280;69922;45.656;25.586;2023-08-01T03:08:15;94856.39;;;16.37;85.04
80568;BME280;69922;45.656;25.586;2023-08-01T03:09:21;94853.73;;;16.38;85.03
80568;BME280;69922;45.656;25.586;2023-08-01T03:10:27;94854.71;;;16.39;85.03
80568;BME280;69922;45.656;25.586;2023-08-01T03:11:42;94861.35;;;16.41;84.89
80568;BME280;69922;45.656;25.586;2023-08-01T03:12:48;94857.98;;;16.41;84.83
80568;BME280;69922;45.656;25.586;2023-08-01T03:13:54;94860.35;;;16.41;84.73
80568;BME280;69922;45.656;25.586;2023-08-01T03:15:00;94862.73;;;16.42;84.74
80568;BME280;69922;45.656;25.586;2023-08-01T03:16:07;94860.79;;;16.44;84.71
80568;BME280;69922;45.656;25.586;2023-08-01T03:17:14;94863.03;;;16.45;84.78
80568;BME280;69922;45.656;25.586;2023-08-01T03:18:22;94862.90;;;16.47;84.77
80568;BME280;69922;45.656;25.586;2023-08-01T03:19:28;94860.30;;;16.48;84.61
80568;BME280;69922;45.656;25.586;2023-08-01T03:20:33;94861.92;;;16.49;84.53
80568;BME280;69922;45.656;25.586;2023-08-01T03:21:39;94866.44;;;16.51;84.48
80568;BME280;69922;45.656;25.586;2023-08-01T03:22:46;94859.73;;;16.51;84.37
80568;BME280;69922;45.656;25.586;2023-08-01T03:23:52;94861.61;;;16.50;84.35
80568;BME280;69922;45.656;25.586;2023-08-01T03:24:58;94863.75;;;16.50;84.38
80568;BME280;69922;45.656;25.586;2023-08-01T03:26:05;94863.99;;;16.51;84.47
80568;BME280;69922;45.656;25.586;2023-08-01T03:27:12;94859.96;;;16.50;84.28
80568;BME280;69922;45.656;25.586;2023-08-01T03:28:18;94859.38;;;16.48;84.39
80568;BME280;69922;45.656;25.586;2023-08-01T03:29:25;94862.22;;;16.49;84.40
80568;BME280;69922;45.656;25.586;2023-08-01T03:30:32;94860.66;;;16.49;84.38
80568;BME280;69922;45.656;25.586;2023-08-01T03:31:39;94855.00;;;16.50;84.40
80568;BME280;69922;45.656;25.586;2023-08-01T03:32:46;94854.02;;;16.49;84.32
80568;BME280;69922;45.656;25.586;2023-08-01T03:33:52;94854.41;;;16.48;84.29
80568;BME280;69922;45.656;25.586;2023-08-01T03:34:59;94850.55;;;16.48;84.35
80568;BME280;69922;45.656;25.586;2023-08-01T03:36:06;94854.52;;;16.50;84.34
80568;BME280;69922;45.656;25.586;2023-08-01T03:37:12;94849.43;;;16.52;84.37
80568;BME280;69922;45.656;25.586;2023-08-01T03:38:22;94850.66;;;16.54;84.50
80568;BME280;69922;45.656;25.586;2023-08-01T03:39:29;94853.05;;;16.56;84.29
80568;BME280;69922;45.656;25.586;2023-08-01T03:40:35;94851.27;;;16.57;84.16
80568;BME280;69922;45.656;25.586;2023-08-01T03:41:41;94856.29;;;16.60;84.16
80568;BME280;69922;45.656;25.586;2023-08-01T03:42:47;94854.59;;;16.63;83.97
80568;BME280;69922;45.656;25.586;2023-08-01T03:43:54;94856.27;;;16.65;83.84
80568;BME280;69922;45.656;25.586;2023-08-01T03:45:00;94853.85;;;16.66;83.64
80568;BME280;69922;45.656;25.586;2023-08-01T03:46:06;94858.63;;;16.65;83.69
80568;BME280;69922;45.656;25.586;2023-08-01T03:47:13;94857.23;;;16.65;83.62
80568;BME280;69922;45.656;25.586;2023-08-01T03:48:20;94862.14;;;16.67;83.68
80568;BME280;69922;45.656;25.586;2023-08-01T03:49:26;94860.02;;;16.68;83.65
80568;BME280;69922;45.656;25.586;2023-08-01T03:50:33;94865.20;;;16.67;83.66
80568;BME280;69922;45.656;25.586;2023-08-01T03:51:39;94864.75;;;16.63;83.51
80568;BME280;69922;45.656;25.586;2023-08-01T03:52:46;94865.39;;;16.63;83.75
80568;BME280;69922;45.656;25.586;2023-08-01T03:53:51;94864.42;;;16.62;83.69
80568;BME280;69922;45.656;25.586;2023-08-01T03:55:17;94858.47;;;16.60;83.64
80568;BME280;69922;45.656;25.586;2023-08-01T03:56:23;94863.40;;;16.58;83.72
80568;BME280;69922;45.656;25.586;2023-08-01T03:57:29;94860.86;;;16.57;83.69
80568;BME280;69922;45.656;25.586;2023-08-01T03:58:35;94862.30;;;16.53;83.83
80568;BME280;69922;45.656;25.586;2023-08-01T03:59:42;94862.48;;;16.49;83.75
80568;BME280;69922;45.656;25.586;2023-08-01T04:00:50;94862.09;;;16.45;83.92
80568;BME280;69922;45.656;25.586;2023-08-01T04:01:59;94862.21;;;16.41;84.12
80568;BME280;69922;45.656;25.586;2023-08-01T04:03:05;94863.23;;;16.37;84.14
80568;BME280;69922;45.656;25.586;2023-08-01T04:04:11;94867.26;;;16.32;84.16
80568;BME280;69922;45.656;25.586;2023-08-01T04:05:17;94865.52;;;16.28;84.28
80568;BME280;69922;45.656;25.586;2023-08-01T04:06:24;94866.59;;;16.25;84.47
80568;BME280;69922;45.656;25.586;2023-08-01T04:07:31;94868.60;;;16.23;84.49
80568;BME280;69922;45.656;25.586;2023-08-01T04:08:38;94867.53;;;16.21;84.56
80568;BME280;69922;45.656;25.586;2023-08-01T04:09:44;94868.48;;;16.21;84.63
80568;BME280;69922;45.656;25.586;2023-08-01T04:10:51;94870.73;;;16.20;84.48
80568;BME280;69922;45.656;25.586;2023-08-01T04:11:57;94870.28;;;16.21;84.41
80568;BME280;69922;45.656;25.586;2023-08-01T04:13:03;94870.50;;;16.20;84.33
80568;BME280;69922;45.656;25.586;2023-08-01T04:14:09;94870.90;;;16.20;84.33
80568;BME280;69922;45.656;25.586;2023-08-01T04:15:15;94871.27;;;16.23;84.30
80568;BME280;69922;45.656;25.586;2023-08-01T04:16:22;94870.13;;;16.26;84.23
80568;BME280;69922;45.656;25.586;2023-08-01T04:17:28;94869.94;;;16.29;84.32
80568;BME280;69922;45.656;25.586;2023-08-01T04:18:36;94869.48;;;16.33;84.10
80568;BME280;69922;45.656;25.586;2023-08-01T04:19:42;94869.98;;;16.35;83.99
80568;BME280;69922;45.656;25.586;2023-08-01T04:20:48;94870.20;;;16.38;83.94
80568;BME280;69922;45.656;25.586;2023-08-01T04:21:55;94874.69;;;16.43;83.92
80568;BME280;69922;45.656;25.586;2023-08-01T04:23:01;94870.77;;;16.47;83.90
80568;BME280;69922;45.656;25.586;2023-08-01T04:24:10;94873.13;;;16.51;83.78
80568;BME280;69922;45.656;25.586;2023-08-01T04:25:16;94869.07;;;16.53;83.67
80568;BME280;69922;45.656;25.586;2023-08-01T04:26:21;94874.97;;;16.57;83.46
80568;BME280;69922;45.656;25.586;2023-08-01T04:27:28;94874.90;;;16.62;83.43
80568;BME280;69922;45.656;25.586;2023-08-01T04:28:34;94874.59;;;16.68;83.47
80568;BME280;69922;45.656;25.586;2023-08-01T04:29:41;94876.61;;;16.75;83.32
80568;BME280;69922;45.656;25.586;2023-08-01T04:30:52;94878.19;;;16.80;82.86
80568;BME280;69922;45.656;25.586;2023-08-01T04:31:58;94878.35;;;16.85;82.78
80568;BME280;69922;45.656;25.586;2023-08-01T04:33:05;94880.58;;;16.91;82.58
80568;BME280;69922;45.656;25.586;2023-08-01T04:34:12;94881.33;;;16.99;82.40
80568;BME280;69922;45.656;25.586;2023-08-01T04:35:18;94879.73;;;17.08;82.46
80568;BME280;69922;45.656;25.586;2023-08-01T04:36:24;94882.16;;;17.17;82.07
80568;BME280;69922;45.656;25.586;2023-08-01T04:37:30;94883.39;;;17.25;81.93
80568;BME280;69922;45.656;25.586;2023-08-01T04:38:45;94884.99;;;17.33;81.56
80568;BME280;69922;45.656;25.586;2023-08-01T04:39:50;94886.86;;;17.37;81.36
80568;BME280;69922;45.656;25.586;2023-08-01T04:40:57;94890.28;;;17.39;81.14
80568;BME280;69922;45.656;25.586;2023-08-01T04:42:05;94889.66;;;17.39;81.05
80568;BME280;69922;45.656;25.586;2023-08-01T04:43:13;94889.29;;;17.40;80.93
80568;BME280;69922;45.656;25.586;2023-08-01T04:44:18;94891.60;;;17.42;80.92
80568;BME280;69922;45.656;25.586;2023-08-01T04:45:25;94892.77;;;17.45;81.00
80568;BME280;69922;45.656;25.586;2023-08-01T04:46:31;94887.95;;;17.50;80.88
80568;BME280;69922;45.656;25.586;2023-08-01T04:47:37;94889.27;;;17.55;80.74
80568;BME280;69922;45.656;25.586;2023-08-01T04:48:44;94891.54;;;17.59;80.71
80568;BME280;69922;45.656;25.586;2023-08-01T04:49:51;94894.20;;;17.64;80.58
80568;BME280;69922;45.656;25.586;2023-08-01T04:50:57;94894.86;;;17.65;80.30
80568;BME280;69922;45.656;25.586;2023-08-01T04:52:06;94899.89;;;17.64;79.89
80568;BME280;69922;45.656;25.586;2023-08-01T04:53:13;94901.80;;;17.59;79.70
80568;BME280;69922;45.656;25.586;2023-08-01T04:54:20;94903.55;;;17.54;79.84
80568;BME280;69922;45.656;25.586;2023-08-01T04:55:27;94907.91;;;17.51;79.86
80568;BME280;69922;45.656;25.586;2023-08-01T04:56:34;94911.98;;;17.45;79.73
80568;BME280;69922;45.656;25.586;2023-08-01T04:57:40;94909.90;;;17.38;79.96
80568;BME280;69922;45.656;25.586;2023-08-01T04:58:46;94912.11;;;17.32;80.05
80568;BME280;69922;45.656;25.586;2023-08-01T04:59:52;94912.95;;;17.30;80.36
80568;BME280;69922;45.656;25.586;2023-08-01T05:00:58;94912.95;;;17.31;80.47
80568;BME280;69922;45.656;25.586;2023-08-01T05:02:06;94912.86;;;17.35;80.50
80568;BME280;69922;45.656;25.586;2023-08-01T05:03:13;94913.61;;;17.38;80.29
80568;BME280;69922;45.656;25.586;2023-08-01T05:04:19;94916.06;;;17.38;80.20
80568;BME280;69922;45.656;25.586;2023-08-01T05:05:25;94917.49;;;17.39;80.18
80568;BME280;69922;45.656;25.586;2023-08-01T05:06:32;94916.16;;;17.40;80.18
80568;BME280;69922;45.656;25.586;2023-08-01T05:07:38;94921.16;;;17.42;80.13
80568;BME280;69922;45.656;25.586;2023-08-01T05:08:47;94917.62;;;17.46;80.08
80568;BME280;69922;45.656;25.586;2023-08-01T05:09:53;94917.34;;;17.48;80.02
80568;BME280;69922;45.656;25.586;2023-08-01T05:10:59;94917.30;;;17.50;80.13
80568;BME280;69922;45.656;25.586;2023-08-01T05:12:08;94914.90;;;17.54;80.06
80568;BME280;69922;45.656;25.586;2023-08-01T05:13:14;94918.65;;;17.57;79.87
80568;BME280;69922;45.656;25.586;2023-08-01T05:14:21;94919.73;;;17.61;79.67
80568;BME280;69922;45.656;25.586;2023-08-01T05:15:27;94913.90;;;17.67;79.65
80568;BME280;69922;45.656;25.586;2023-08-01T05:16:38;94919.11;;;17.73;79.70
80568;BME280;69922;45.656;25.586;2023-08-01T05:17:45;94914.95;;;17.81;79.69
80568;BME280;69922;45.656;25.586;2023-08-01T05:18:51;94914.59;;;17.89;79.56
80568;BME280;69922;45.656;25.586;2023-08-01T05:19:57;94912.15;;;17.97;79.26
80568;BME280;69922;45.656;25.586;2023-08-01T05:21:04;94914.68;;;18.04;78.98
80568;BME280;69922;45.656;25.586;2023-08-01T05:22:10;94916.67;;;18.11;78.89
80568;BME280;69922;45.656;25.586;2023-08-01T05:23:15;94914.82;;;18.15;78.57
80568;BME280;69922;45.656;25.586;2023-08-01T05:24:22;94912.95;;;18.17;78.49
80568;BME280;69922;45.656;25.586;2023-08-01T05:25:30;94917.50;;;18.22;78.59
80568;BME280;69922;45.656;25.586;2023-08-01T05:26:37;94913.84;;;18.27;78.41
80568;BME280;69922;45.656;25.586;2023-08-01T05:27:44;94917.70;;;18.33;78.18
80568;BME280;69922;45.656;25.586;2023-08-01T05:28:50;94915.40;;;18.38;77.86
80568;BME280;69922;45.656;25.586;2023-08-01T05:29:57;94912.86;;;18.42;77.45
80568;BME280;69922;45.656;25.586;2023-08-01T05:31:03;94919.47;;;18.46;77.33
80568;BME280;69922;45.656;25.586;2023-08-01T05:32:09;94920.16;;;18.46;77.08
80568;BME280;69922;45.656;25.586;2023-08-01T05:33:16;94924.12;;;18.46;77.23
80568;BME280;69922;45.656;25.586;2023-08-01T05:34:22;94926.59;;;18.48;77.35
80568;BME280;69922;45.656;25.586;2023-08-01T05:35:30;94924.00;;;18.50;77.17
80568;BME280;69922;45.656;25.586;2023-08-01T05:36:35;94927.66;;;18.52;77.14
80568;BME280;69922;45.656;25.586;2023-08-01T05:37:44;94929.11;;;18.54;77.08
80568;BME280;69922;45.656;25.586;2023-08-01T05:38:50;94927.70;;;18.57;76.88
80568;BME280;69922;45.656;25.586;2023-08-01T05:39:56;94929.46;;;18.58;76.71
80568;BME280;69922;45.656;25.586;2023-08-01T05:41:02;94925.91;;;18.59;76.66
80568;BME280;69922;45.656;25.586;2023-08-01T05:42:08;94927.98;;;18.60;76.64
80568;BME280;69922;45.656;25.586;2023-08-01T05:43:15;94929.89;;;18.61;76.23
80568;BME280;69922;45.656;25.586;2023-08-01T05:44:21;94926.79;;;18.60;76.06
80568;BME280;69922;45.656;25.586;2023-08-01T05:45:27;94928.89;;;18.56;76.27
80568;BME280;69922;45.656;25.586;2023-08-01T05:46:34;94928.88;;;18.55;76.29
80568;BME280;69922;45.656;25.586;2023-08-01T05:47:42;94926.09;;;18.54;76.31
80568;BME280;69922;45.656;25.586;2023-08-01T05:48:48;94929.27;;;18.55;76.24
80568;BME280;69922;45.656;25.586;2023-08-01T05:49:54;94929.77;;;18.55;76.31
80568;BME280;69922;45.656;25.586;2023-08-01T05:51:01;94928.25;;;18.55;76.08
80568;BME280;69922;45.656;25.586;2023-08-01T05:52:10;94926.34;;;18.54;75.89